Time;durP1;ratioP1;P1;durP2;ratioP2;P2;SDS_P1;SDS_P2;PMS_P1;PMS_P2;Temp;Humidity;BMP_temperature;BMP_pressure;BME280_temperature;BME280_humidity;BME280_pressure;Samples;Min_cycle;Max_cycle;Signal;HPM_P1;HPM_P2
2021/11/07 00:07:09;;;;;;;10.75;4.93;;;11.10;99.90;;;;;;5036630;28;20088;-84
2021/11/07 00:09:41;;;;;;;11.63;4.70;;;11.10;99.90;;;;;;5037224;28;20045;-83
2021/11/07 00:12:15;;;;;;;10.48;3.97;;;11.10;99.90;;;;;;5036885;28;20378;-84
2021/11/07 00:14:41;;;;;;;11.57;3.78;;;11.10;99.90;;;;;;5038598;28;20047;-83
2021/11/07 00:17:07;;;;;;;11.32;3.35;;;11.20;99.90;;;;;;5036948;28;20048;-84
2021/11/07 00:19:39;;;;;;;13.13;4.15;;;11.10;99.90;;;;;;5037737;28;20132;-83
2021/11/07 00:22:18;;;;;;;14.00;3.70;;;11.20;99.90;;;;;;5037473;28;20128;-82
2021/11/07 00:25:05;;;;;;;12.63;3.60;;;11.20;99.90;;;;;;5037056;28;20106;-82
2021/11/07 00:27:36;;;;;;;13.52;3.30;;;11.20;99.90;;;;;;5037380;28;20454;-82
2021/11/07 00:30:16;;;;;;;14.07;3.35;;;11.30;99.90;;;;;;5033810;28;20056;-82
2021/11/07 00:37:57;;;;;;;13.18;3.42;;;11.30;99.90;;;;;;5036359;28;20069;-84
2021/11/07 00:40:32;;;;;;;16.30;3.45;;;11.30;99.90;;;;;;5037369;28;20493;-82
2021/11/07 00:43:04;;;;;;;10.93;3.30;;;11.30;99.90;;;;;;5037344;28;20075;-82
2021/11/07 00:45:45;;;;;;;13.48;2.97;;;11.30;99.90;;;;;;5037295;28;20045;-82
2021/11/07 00:56:47;;;;;;;12.95;2.78;;;11.40;99.90;;;;;;4994341;28;20056;-84
2021/11/07 00:59:23;;;;;;;13.75;3.05;;;11.40;99.90;;;;;;5035716;28;20059;-82
2021/11/07 01:02:00;;;;;;;13.65;2.63;;;11.40;99.90;;;;;;5036902;28;20571;-83
2021/11/07 01:04:29;;;;;;;15.63;3.08;;;11.40;99.90;;;;;;5027964;28;20053;-83
2021/11/07 01:06:54;;;;;;;23.10;3.20;;;11.40;99.90;;;;;;5036434;28;20036;-84
2021/11/07 01:09:22;;;;;;;12.60;2.72;;;11.40;99.90;;;;;;5029369;28;20485;-83
2021/11/07 01:11:49;;;;;;;13.38;3.20;;;11.50;99.90;;;;;;5036929;28;20080;-83
2021/11/07 01:14:15;;;;;;;13.00;3.17;;;11.50;99.90;;;;;;5036310;28;20041;-83
2021/11/07 01:16:42;;;;;;;17.40;3.15;;;11.50;99.90;;;;;;5036956;28;20455;-81
2021/11/07 01:19:09;;;;;;;11.63;2.80;;;11.50;99.90;;;;;;5035779;28;20087;-81
2021/11/07 01:21:38;;;;;;;14.48;3.25;;;11.50;99.90;;;;;;5036637;28;20045;-82
2021/11/07 01:24:08;;;;;;;13.45;3.20;;;11.50;99.90;;;;;;5033838;28;20044;-84
2021/11/07 01:26:42;;;;;;;11.68;3.45;;;11.50;99.90;;;;;;5036143;28;20068;-83
2021/11/07 01:29:21;;;;;;;14.35;3.03;;;11.50;99.90;;;;;;5036763;28;20455;-84
2021/11/07 01:31:48;;;;;;;19.88;4.00;;;11.60;99.90;;;;;;5036113;28;20033;-83
2021/11/07 01:34:22;;;;;;;15.52;3.42;;;11.60;99.90;;;;;;5034542;28;20049;-82
2021/11/07 01:36:52;;;;;;;16.63;3.85;;;11.60;99.90;;;;;;5036342;28;20044;-85
2021/11/07 01:42:01;;;;;;;18.10;4.13;;;11.60;99.90;;;;;;5033106;28;20420;-83
2021/11/07 01:44:56;;;;;;;17.30;4.00;;;11.60;99.90;;;;;;5027210;28;20048;-83
2021/11/07 01:47:23;;;;;;;18.25;4.32;;;11.60;99.90;;;;;;5035284;28;20477;-83
2021/11/07 01:49:49;;;;;;;25.35;4.10;;;11.60;99.90;;;;;;5035985;28;20037;-85
2021/11/07 01:52:15;;;;;;;18.58;4.20;;;11.60;99.90;;;;;;5036118;28;20045;-85
2021/11/07 01:54:52;;;;;;;20.52;4.55;;;11.70;99.90;;;;;;5035659;28;20127;-85
2021/11/07 01:57:21;;;;;;;23.25;4.65;;;11.70;99.90;;;;;;5035705;28;20553;-84
2021/11/07 01:59:51;;;;;;;18.25;4.28;;;11.70;99.90;;;;;;5035323;28;20056;-84
2021/11/07 02:02:18;;;;;;;21.42;4.43;;;11.70;99.90;;;;;;5030862;28;20130;-84
2021/11/07 02:04:44;;;;;;;20.13;4.40;;;11.70;99.90;;;;;;5026790;28;20041;-84
2021/11/07 02:07:11;;;;;;;26.75;4.90;;;11.70;99.90;;;;;;5035672;28;20047;-84
2021/11/07 02:09:37;;;;;;;17.52;3.92;;;11.70;99.90;;;;;;5035405;28;20049;-84
2021/11/07 02:12:04;;;;;;;21.75;3.90;;;11.70;99.90;;;;;;5028543;28;20041;-84
2021/11/07 02:14:31;;;;;;;21.15;4.13;;;11.70;99.90;;;;;;5035732;28;20033;-84
2021/11/07 02:16:56;;;;;;;23.95;4.05;;;11.70;99.90;;;;;;5034936;28;20048;-84
2021/11/07 02:19:22;;;;;;;19.45;4.50;;;11.70;99.90;;;;;;5036190;28;20045;-85
2021/11/07 02:21:48;;;;;;;17.73;3.85;;;11.60;99.90;;;;;;5034894;28;20072;-84
2021/11/07 02:24:16;;;;;;;18.35;4.22;;;11.60;99.90;;;;;;5034997;28;20412;-84
2021/11/07 02:26:44;;;;;;;19.42;3.80;;;11.60;99.90;;;;;;5036065;28;20053;-84
2021/11/07 02:29:10;;;;;;;17.65;4.07;;;11.60;99.90;;;;;;5035031;28;20048;-84
2021/11/07 02:31:36;;;;;;;17.75;4.00;;;11.60;99.90;;;;;;5034470;28;20045;-84
2021/11/07 02:34:02;;;;;;;25.23;4.38;;;11.60;99.90;;;;;;5019011;28;20041;-84
2021/11/07 02:36:27;;;;;;;24.48;4.47;;;11.50;99.90;;;;;;5015487;28;20508;-84
2021/11/07 02:38:53;;;;;;;25.25;4.60;;;11.50;99.90;;;;;;5030825;28;20037;-85
2021/11/07 02:41:19;;;;;;;19.75;4.30;;;11.50;99.90;;;;;;5035259;28;20094;-86
2021/11/07 02:43:51;;;;;;;25.42;4.28;;;11.40;99.90;;;;;;5034369;28;20080;-85
2021/11/07 02:46:17;;;;;;;29.33;4.85;;;11.40;99.70;;;;;;5035551;28;20127;-84
2021/11/07 02:48:49;;;;;;;23.88;4.57;;;11.30;99.50;;;;;;5035595;28;20209;-85
2021/11/07 02:51:18;;;;;;;22.88;4.05;;;11.30;99.40;;;;;;5034918;28;20041;-86
2021/11/07 02:53:47;;;;;;;22.75;4.60;;;11.30;99.30;;;;;;5035048;28;20477;-86
2021/11/07 02:56:14;;;;;;;22.83;4.22;;;11.30;99.10;;;;;;5035475;28;20052;-85
2021/11/07 02:58:40;;;;;;;26.00;4.20;;;11.20;99.00;;;;;;5034616;28;20433;-85
2021/11/07 03:01:09;;;;;;;27.45;4.60;;;11.20;98.90;;;;;;5034509;28;20606;-85
2021/11/07 03:03:35;;;;;;;25.33;4.93;;;11.20;98.70;;;;;;5034218;28;20053;-85
2021/11/07 03:06:01;;;;;;;19.27;4.57;;;11.20;98.60;;;;;;5034470;28;20141;-85
2021/11/07 03:08:28;;;;;;;27.20;4.90;;;11.20;98.60;;;;;;5034880;28;20452;-84
2021/11/07 03:10:55;;;;;;;21.88;4.72;;;11.20;98.40;;;;;;5035766;28;20041;-85
2021/11/07 03:13:21;;;;;;;25.10;4.80;;;11.20;98.30;;;;;;5034460;28;20506;-86
2021/11/07 03:15:49;;;;;;;26.15;5.00;;;11.20;98.20;;;;;;5034027;28;20131;-85
2021/11/07 03:18:20;;;;;;;24.67;4.57;;;11.20;98.10;;;;;;5026023;28;20132;-85
2021/11/07 03:20:46;;;;;;;29.63;4.85;;;11.20;98.00;;;;;;5026075;28;20037;-85
2021/11/07 03:23:19;;;;;;;28.55;5.70;;;11.10;97.90;;;;;;5018478;28;20053;-85
2021/11/07 03:25:49;;;;;;;21.63;4.25;;;11.10;97.90;;;;;;5034715;28;20057;-86
2021/11/07 03:28:15;;;;;;;25.23;4.53;;;11.10;97.90;;;;;;5035013;28;20056;-85
2021/11/07 03:31:31;;;;;;;26.75;4.90;;;11.00;97.90;;;;;;5034871;28;20041;-86
2021/11/07 03:33:30;;;;;;;26.80;4.85;;;11.10;97.80;;;;;;5019594;28;20566;-84
2021/11/07 03:35:58;;;;;;;30.38;4.65;;;11.00;97.80;;;;;;5035243;28;20045;-85
2021/11/07 03:38:23;;;;;;;21.73;4.40;;;11.00;97.80;;;;;;5035014;28;20049;-85
2021/11/07 03:40:50;;;;;;;27.95;5.18;;;11.00;97.70;;;;;;5034641;28;20198;-86
2021/11/07 03:43:16;;;;;;;24.05;4.65;;;11.00;97.70;;;;;;5034747;28;20059;-86
2021/11/07 03:45:41;;;;;;;24.08;4.90;;;11.00;97.70;;;;;;5037044;28;20123;-85
2021/11/07 03:48:07;;;;;;;28.20;4.57;;;10.90;97.70;;;;;;5037936;28;20063;-84
2021/11/07 03:50:33;;;;;;;24.02;4.30;;;11.00;97.70;;;;;;5033351;28;20033;-85
2021/11/07 03:52:59;;;;;;;24.42;4.32;;;10.90;97.70;;;;;;5037963;28;20041;-86
2021/11/07 03:55:26;;;;;;;22.70;4.68;;;10.90;97.70;;;;;;5037172;28;20136;-86
2021/11/07 03:57:52;;;;;;;29.77;4.80;;;10.90;97.60;;;;;;5038035;28;20033;-84
2021/11/07 04:00:20;;;;;;;22.70;3.90;;;10.80;97.50;;;;;;5037005;28;20045;-84
2021/11/07 04:02:46;;;;;;;28.63;4.15;;;10.80;97.50;;;;;;5037274;28;20068;-85
2021/11/07 04:05:12;;;;;;;23.73;4.30;;;10.80;97.70;;;;;;5037852;28;20048;-84
2021/11/07 04:07:39;;;;;;;20.63;3.47;;;10.80;97.30;;;;;;5038121;28;20037;-84
2021/11/07 04:10:07;;;;;;;20.10;4.03;;;10.80;97.40;;;;;;5036438;28;20083;-85
2021/11/07 04:12:33;;;;;;;23.65;4.30;;;10.80;97.50;;;;;;5037880;28;20048;-86
2021/11/07 04:14:58;;;;;;;25.75;4.40;;;10.80;97.60;;;;;;5037267;28;20048;-85
2021/11/07 04:17:24;;;;;;;29.92;4.18;;;10.70;97.50;;;;;;5038212;28;20049;-86
2021/11/07 04:19:49;;;;;;;24.35;3.75;;;10.70;97.40;;;;;;5037297;28;20040;-85
2021/11/07 04:22:15;;;;;;;20.35;4.20;;;10.70;97.30;;;;;;5037208;28;20268;-86
2021/11/07 04:24:41;;;;;;;27.45;4.03;;;10.70;97.30;;;;;;5038441;28;20405;-86
2021/11/07 04:27:07;;;;;;;18.38;4.20;;;10.60;97.30;;;;;;5038191;28;20091;-86
2021/11/07 04:29:33;;;;;;;20.90;4.05;;;10.60;97.40;;;;;;5036928;28;20128;-86
2021/11/07 04:31:59;;;;;;;24.58;3.80;;;10.60;97.30;;;;;;5038251;28;20083;-86
2021/11/07 04:34:26;;;;;;;25.95;4.25;;;10.60;97.30;;;;;;5036837;28;20068;-86
2021/11/07 04:36:53;;;;;;;25.10;4.72;;;10.60;97.30;;;;;;5036429;28;20037;-85
2021/11/07 04:39:20;;;;;;;26.00;4.07;;;10.60;97.30;;;;;;5036623;28;20076;-87
2021/11/07 04:41:48;;;;;;;16.88;3.72;;;10.60;97.30;;;;;;5037509;28;20127;-87
2021/11/07 04:44:13;;;;;;;19.85;3.67;;;10.50;97.20;;;;;;5036745;28;20049;-87
2021/11/07 04:46:39;;;;;;;19.02;4.00;;;10.50;97.20;;;;;;5037287;28;20048;-87
2021/11/07 04:49:04;;;;;;;24.45;3.60;;;10.40;97.20;;;;;;5037789;28;20049;-86
2021/11/07 04:51:31;;;;;;;16.27;3.47;;;10.40;97.30;;;;;;5037242;28;20039;-88
2021/11/07 04:53:57;;;;;;;21.45;3.83;;;10.40;97.30;;;;;;5037227;28;20048;-87
2021/11/07 04:56:22;;;;;;;17.33;3.75;;;10.40;97.30;;;;;;5036648;28;20123;-88
2021/11/07 04:58:48;;;;;;;20.30;4.28;;;10.40;97.40;;;;;;5036819;28;20500;-87
2021/11/07 05:01:14;;;;;;;19.60;4.28;;;10.30;97.30;;;;;;5036845;28;20051;-87
2021/11/07 05:03:39;;;;;;;21.33;4.43;;;10.30;97.30;;;;;;5037109;28;20057;-87
2021/11/07 05:06:06;;;;;;;25.45;3.72;;;10.30;97.30;;;;;;5035374;28;20131;-87
2021/11/07 05:08:31;;;;;;;19.58;3.97;;;10.20;97.20;;;;;;5036469;28;20492;-87
2021/11/07 05:10:58;;;;;;;25.83;4.28;;;10.20;97.20;;;;;;5036502;28;20071;-87
2021/11/07 05:13:23;;;;;;;21.08;3.67;;;10.20;97.20;;;;;;5036376;28;20122;-86
2021/11/07 05:15:49;;;;;;;22.30;4.57;;;10.20;97.10;;;;;;5036896;28;20091;-87
2021/11/07 05:18:17;;;;;;;16.33;3.30;;;10.10;97.10;;;;;;5035989;28;20094;-86
2021/11/07 05:20:43;;;;;;;18.95;4.43;;;10.10;97.10;;;;;;5036107;28;20049;-86
2021/11/07 05:23:09;;;;;;;22.83;4.00;;;10.10;97.10;;;;;;5036527;28;20033;-88
2021/11/07 05:25:34;;;;;;;25.40;4.40;;;10.10;97.00;;;;;;5036236;28;20049;-87
2021/11/07 05:28:00;;;;;;;20.17;3.90;;;10.10;97.00;;;;;;5037106;28;20044;-87
2021/11/07 05:30:27;;;;;;;23.98;3.80;;;10.00;97.00;;;;;;5036397;28;20052;-88
2021/11/07 05:32:53;;;;;;;21.25;4.10;;;10.10;97.10;;;;;;5035543;28;20044;-88
2021/11/07 05:35:20;;;;;;;22.92;4.10;;;10.00;97.20;;;;;;5035640;28;20048;-87
2021/11/07 05:37:47;;;;;;;17.02;3.15;;;10.00;97.30;;;;;;5025575;28;20049;-88
2021/11/07 05:40:13;;;;;;;19.98;3.50;;;10.00;97.10;;;;;;5035475;28;20041;-88
2021/11/07 05:42:39;;;;;;;23.08;3.22;;;10.00;97.10;;;;;;5036678;28;20128;-87
2021/11/07 05:45:05;;;;;;;20.25;3.30;;;10.00;97.10;;;;;;5036113;28;20563;-87
2021/11/07 05:47:31;;;;;;;20.33;3.60;;;10.00;97.10;;;;;;5035757;28;20041;-87
2021/11/07 05:49:57;;;;;;;17.75;3.53;;;10.00;97.00;;;;;;5036258;28;20090;-88
2021/11/07 05:52:23;;;;;;;23.88;3.63;;;9.90;96.90;;;;;;5036238;28;20084;-87
2021/11/07 05:54:48;;;;;;;17.90;3.17;;;9.90;96.90;;;;;;5035812;28;20041;-86
2021/11/07 05:57:14;;;;;;;24.33;3.90;;;9.90;96.90;;;;;;5035692;28;20037;-86
2021/11/07 05:59:39;;;;;;;22.05;3.42;;;9.90;96.90;;;;;;5036221;28;20055;-88
2021/11/07 06:02:06;;;;;;;17.83;3.35;;;9.90;96.90;;;;;;5035203;28;20416;-87
2021/11/07 06:04:31;;;;;;;21.65;3.42;;;9.90;96.80;;;;;;5036588;28;20087;-86
2021/11/07 06:06:57;;;;;;;15.60;2.90;;;9.90;96.90;;;;;;5027078;28;20123;-86
2021/11/07 06:09:22;;;;;;;22.70;3.78;;;9.90;97.00;;;;;;5026979;28;20153;-86
2021/11/07 06:11:48;;;;;;;24.88;3.72;;;9.90;97.00;;;;;;5035889;28;20037;-86
2021/11/07 06:14:16;;;;;;;21.63;3.45;;;9.90;97.10;;;;;;5036020;28;20049;-87
2021/11/07 06:16:42;;;;;;;23.58;3.55;;;9.90;97.00;;;;;;5034895;28;20519;-87
2021/11/07 06:19:08;;;;;;;21.55;3.53;;;9.90;96.90;;;;;;5035760;28;20037;-87
2021/11/07 06:21:35;;;;;;;22.33;3.70;;;9.90;96.90;;;;;;5033023;28;20488;-86
2021/11/07 06:24:01;;;;;;;19.52;2.95;;;9.90;96.90;;;;;;5035792;28;20099;-86
2021/11/07 06:26:27;;;;;;;15.00;3.03;;;9.80;96.80;;;;;;5035494;28;20041;-86
2021/11/07 06:28:54;;;;;;;19.48;3.03;;;9.90;96.70;;;;;;5035129;28;20060;-85
2021/11/07 06:31:23;;;;;;;13.10;3.03;;;9.80;96.70;;;;;;5018575;28;20471;-86
2021/11/07 06:33:49;;;;;;;16.80;3.58;;;9.80;96.70;;;;;;5035890;28;20048;-86
2021/11/07 06:36:15;;;;;;;13.05;2.60;;;9.80;96.70;;;;;;5034526;28;20037;-87
2021/11/07 06:38:41;;;;;;;14.10;2.50;;;9.80;96.50;;;;;;5035591;28;20412;-87
2021/11/07 06:41:06;;;;;;;18.05;3.10;;;9.80;96.50;;;;;;5035351;28;20033;-86
2021/11/07 06:43:33;;;;;;;15.63;3.00;;;9.80;96.60;;;;;;5015300;28;20045;-86
2021/11/07 06:45:58;;;;;;;16.17;3.10;;;9.70;96.60;;;;;;5022954;28;20147;-86
2021/11/07 06:48:24;;;;;;;13.98;2.88;;;9.80;96.70;;;;;;5036028;28;20049;-87
2021/11/07 06:50:50;;;;;;;15.23;2.83;;;9.80;96.60;;;;;;5033412;28;20045;-86
2021/11/07 06:53:17;;;;;;;19.95;2.75;;;9.70;96.50;;;;;;5017769;28;20520;-87
2021/11/07 06:55:43;;;;;;;14.43;2.58;;;9.70;96.50;;;;;;5033986;28;20045;-86
2021/11/07 06:58:08;;;;;;;13.48;2.35;;;9.70;96.70;;;;;;5033849;28;20386;-87
2021/11/07 07:00:34;;;;;;;13.73;2.58;;;9.70;96.70;;;;;;5030978;28;20425;-86
2021/11/07 07:03:00;;;;;;;14.27;2.80;;;9.70;96.70;;;;;;5027293;28;20052;-86
2021/11/07 07:05:26;;;;;;;13.52;2.30;;;9.60;96.70;;;;;;5033135;28;20056;-86
2021/11/07 07:07:54;;;;;;;12.88;2.45;;;9.60;96.80;;;;;;5034459;28;20060;-87
2021/11/07 07:10:34;;;;;;;18.25;2.97;;;9.60;97.00;;;;;;5033118;28;20037;-86
2021/11/07 07:15:36;;;;;;;16.38;2.70;;;9.60;96.70;;;;;;5031182;28;20084;-87
2021/11/07 07:26:02;;;;;;;14.60;2.90;;;9.60;96.80;;;;;;5037928;28;20052;-85
2021/11/07 07:28:36;;;;;;;14.60;2.85;;;9.50;96.70;;;;;;5038855;28;20044;-86
2021/11/07 07:31:27;;;;;;;15.75;2.60;;;9.50;96.70;;;;;;5039250;28;20051;-86
2021/11/07 07:34:01;;;;;;;14.43;2.38;;;9.50;96.80;;;;;;5037850;28;20119;-86
2021/11/07 07:36:26;;;;;;;12.43;2.00;;;9.40;96.70;;;;;;5028012;28;20045;-88
2021/11/07 07:38:53;;;;;;;18.20;2.50;;;9.40;96.60;;;;;;5037454;28;20068;-86
2021/11/07 07:41:19;;;;;;;19.50;2.65;;;9.40;96.50;;;;;;5026004;28;20122;-88
2021/11/07 07:43:45;;;;;;;17.83;2.70;;;9.40;96.40;;;;;;5037767;28;20047;-89
2021/11/07 07:46:12;;;;;;;12.80;2.30;;;9.30;96.40;;;;;;5037832;28;20029;-84
2021/11/07 07:48:44;;;;;;;15.30;2.63;;;9.30;96.30;;;;;;5032454;28;20045;-85
2021/11/07 07:51:12;;;;;;;14.90;2.25;;;9.30;96.20;;;;;;5038866;28;20060;-86
2021/11/07 07:53:39;;;;;;;14.82;1.92;;;9.30;96.20;;;;;;5037690;28;20043;-85
2021/11/07 07:56:05;;;;;;;12.35;2.25;;;9.30;96.30;;;;;;5038578;28;20048;-88
2021/11/07 07:58:31;;;;;;;10.45;2.10;;;9.30;96.10;;;;;;5038909;28;20056;-87
2021/11/07 08:00:57;;;;;;;11.50;2.05;;;9.30;96.00;;;;;;5037816;28;20041;-87
2021/11/07 08:03:26;;;;;;;17.00;2.42;;;9.40;95.90;;;;;;5036859;28;20045;-85
2021/11/07 08:06:15;;;;;;;12.23;2.10;;;9.40;95.80;;;;;;5018462;28;20140;-86
2021/11/07 08:08:41;;;;;;;14.63;2.50;;;9.30;95.60;;;;;;5017943;28;20087;-86
2021/11/07 08:11:14;;;;;;;17.90;2.50;;;9.30;95.90;;;;;;5034870;28;20045;-85
2021/11/07 08:13:40;;;;;;;;;;;9.30;95.90;;;;;;5038141;28;20396;-86
2021/11/07 08:16:06;;;;;;;15.07;2.15;;;9.30;95.30;;;;;;5036424;28;20368;-85
2021/11/07 08:18:33;;;;;;;15.48;2.50;;;9.30;95.90;;;;;;5037614;28;20044;-85
2021/11/07 08:20:59;;;;;;;13.25;1.92;;;9.40;95.80;;;;;;5036620;28;20044;-85
2021/11/07 08:23:25;;;;;;;14.43;2.50;;;9.30;95.70;;;;;;5037337;28;20047;-86
2021/11/07 08:25:51;;;;;;;15.23;2.63;;;9.40;95.70;;;;;;5037858;28;20082;-86
2021/11/07 08:28:21;;;;;;;16.55;2.80;;;9.40;95.60;;;;;;5037299;28;20517;-87
2021/11/07 08:30:52;;;;;;;20.05;2.72;;;9.50;95.50;;;;;;5054957;28;20071;-86
2021/11/07 08:33:19;;;;;;;18.45;2.85;;;9.50;95.50;;;;;;5055546;28;20049;-86
2021/11/07 08:35:46;;;;;;;15.52;2.92;;;9.50;95.40;;;;;;5037180;28;20417;-86
2021/11/07 08:38:22;;;;;;;15.07;2.40;;;9.50;95.60;;;;;;5037090;28;20040;-86
2021/11/07 08:40:51;;;;;;;20.73;3.03;;;9.50;95.60;;;;;;5027898;28;20077;-84
2021/11/07 08:54:33;;;;;;;13.35;2.38;;;9.60;96.00;;;;;;5036551;28;20473;-89
2021/11/07 09:02:51;;;;;;;15.55;2.17;;;9.50;96.30;;;;;;5055210;28;20492;-81
2021/11/07 09:05:23;;;;;;;17.15;2.85;;;9.50;96.50;;;;;;5033153;28;20077;-89
2021/11/07 09:10:47;;;;;;;16.42;3.10;;;9.60;96.70;;;;;;5004259;28;20048;-91
2021/11/07 09:13:14;;;;;;;17.52;2.90;;;9.60;96.80;;;;;;5035000;28;20044;-83
2021/11/07 09:15:44;;;;;;;20.45;3.00;;;9.60;96.90;;;;;;5037562;28;20106;-84
2021/11/07 09:18:10;;;;;;;19.63;2.72;;;9.60;97.10;;;;;;5036934;28;20480;-92
2021/11/07 09:20:48;;;;;;;19.75;3.00;;;9.60;97.10;;;;;;5037987;28;20076;-92
2021/11/07 09:26:08;;;;;;;17.08;2.72;;;9.70;97.20;;;;;;5037510;28;20060;-91
2021/11/07 09:29:22;;;;;;;17.30;2.70;;;9.70;97.20;;;;;;5037975;28;20045;-90
2021/11/07 09:32:16;;;;;;;16.70;2.90;;;9.70;97.20;;;;;;5038239;28;20061;-89
2021/11/07 09:35:15;;;;;;;19.27;2.75;;;9.80;97.20;;;;;;5037251;28;20496;-91
2021/11/07 09:44:19;;;;;;;19.67;3.40;;;9.90;96.60;;;;;;5033047;28;20136;-92
2021/11/07 09:49:33;;;;;;;18.92;3.10;;;10.10;96.50;;;;;;5038675;28;20489;-92
2021/11/07 09:52:25;;;;;;;16.30;2.97;;;10.20;96.40;;;;;;5037962;28;20048;-92
2021/11/07 09:54:59;;;;;;;19.55;3.15;;;10.30;96.20;;;;;;5038672;28;20045;-92
2021/11/07 09:57:30;;;;;;;21.13;3.20;;;10.40;96.30;;;;;;5020756;28;20091;-92
2021/11/07 09:59:59;;;;;;;16.48;2.50;;;10.40;96.10;;;;;;5036628;28;20084;-89
2021/11/07 10:02:37;;;;;;;16.92;2.70;;;10.50;95.80;;;;;;5051416;28;20115;-89
2021/11/07 10:05:04;;;;;;;12.75;2.33;;;10.50;95.40;;;;;;5036201;28;20049;-88
2021/11/07 10:07:34;;;;;;;18.17;2.63;;;10.50;95.00;;;;;;5035980;28;20059;-90
2021/11/07 10:10:06;;;;;;;21.30;3.08;;;10.50;94.80;;;;;;5037259;28;20397;-89
2021/11/07 10:12:37;;;;;;;16.75;2.90;;;10.50;94.70;;;;;;5037084;28;20084;-89
2021/11/07 10:15:07;;;;;;;16.27;2.67;;;10.50;94.80;;;;;;5036818;28;20033;-90
2021/11/07 10:23:21;;;;;;;16.15;2.70;;;10.40;94.90;;;;;;5030197;28;20079;-86
2021/11/07 10:26:38;;;;;;;15.80;2.80;;;10.30;94.80;;;;;;5035321;28;20481;-86
2021/11/07 10:31:20;;;;;;;15.27;2.55;;;10.40;95.30;;;;;;5036865;28;20045;-92
2021/11/07 10:39:16;;;;;;;18.25;3.20;;;10.40;95.70;;;;;;5033427;28;20055;-84
2021/11/07 10:41:54;;;;;;;16.13;2.83;;;10.40;95.70;;;;;;5013601;28;20586;-87
2021/11/07 10:44:41;;;;;;;19.60;3.42;;;10.40;95.70;;;;;;5031870;28;20079;-84
2021/11/07 10:47:24;;;;;;;17.60;3.13;;;10.30;95.70;;;;;;5015999;28;20477;-84
2021/11/07 10:52:39;;;;;;;23.92;3.97;;;10.30;96.00;;;;;;5026543;28;20560;-82
2021/11/07 10:55:25;;;;;;;22.83;3.45;;;10.30;96.10;;;;;;5027340;28;20055;-83
2021/11/07 10:57:59;;;;;;;19.52;3.53;;;10.30;96.00;;;;;;5020873;28;20072;-83
2021/11/07 11:00:37;;;;;;;19.80;3.20;;;10.30;95.80;;;;;;5043013;28;20099;-83
2021/11/07 11:03:10;;;;;;;19.13;3.28;;;10.30;95.90;;;;;;5032380;28;20875;-83
2021/11/07 11:05:39;;;;;;;21.77;3.10;;;10.30;96.00;;;;;;5016038;28;20052;-82
2021/11/07 11:08:12;;;;;;;21.00;3.15;;;10.30;96.00;;;;;;5015492;28;20346;-84
2021/11/07 11:10:49;;;;;;;15.68;2.88;;;10.30;96.00;;;;;;5033213;28;20045;-83
2021/11/07 11:13:24;;;;;;;21.52;3.38;;;10.40;96.00;;;;;;5034874;28;20037;-84
2021/11/07 11:16:17;;;;;;;19.95;3.13;;;10.40;95.90;;;;;;5033623;28;20053;-82
2021/11/07 11:21:57;;;;;;;17.42;2.75;;;10.40;95.80;;;;;;5034888;28;20049;-84
2021/11/07 11:24:42;;;;;;;21.00;2.83;;;10.50;95.70;;;;;;5034714;28;20047;-84
2021/11/07 11:30:02;;;;;;;21.92;3.20;;;10.50;95.30;;;;;;5025784;28;20046;-84
2021/11/07 11:40:10;;;;;;;15.82;2.70;;;10.60;94.80;;;;;;5033837;28;20063;-84
2021/11/07 11:42:53;;;;;;;21.95;3.30;;;10.60;94.60;;;;;;5035112;28;20127;-83
2021/11/07 11:45:22;;;;;;;13.55;2.47;;;10.60;94.50;;;;;;5030702;28;20041;-83
2021/11/07 11:48:29;;;;;;;17.92;2.75;;;10.70;94.20;;;;;;5024196;28;20037;-84
2021/11/07 11:54:01;;;;;;;16.88;2.72;;;10.70;94.20;;;;;;5029951;28;20407;-84
2021/11/07 11:56:34;;;;;;;20.85;3.20;;;10.80;94.20;;;;;;5022559;28;20091;-84
2021/11/07 11:59:07;;;;;;;24.08;3.25;;;10.80;94.20;;;;;;5016751;28;20049;-84
2021/11/07 12:01:41;;;;;;;15.05;2.53;;;10.80;94.20;;;;;;5021688;28;20037;-84
2021/11/07 12:04:32;;;;;;;18.15;3.50;;;10.90;93.90;;;;;;5020161;28;20065;-84
2021/11/07 12:07:22;;;;;;;20.80;3.30;;;10.90;93.60;;;;;;5019967;28;20151;-84
2021/11/07 12:09:56;;;;;;;17.35;2.85;;;10.90;92.90;;;;;;5034509;28;20052;-85
2021/11/07 12:12:36;;;;;;;18.15;3.08;;;10.80;93.00;;;;;;5021259;28;20032;-84
2021/11/07 12:18:05;;;;;;;17.83;2.88;;;10.80;93.10;;;;;;5037932;28;20053;-85
2021/11/07 12:20:36;;;;;;;22.42;3.50;;;10.80;93.20;;;;;;5017168;28;20124;-84
2021/11/07 12:23:27;;;;;;;17.70;2.75;;;10.80;93.50;;;;;;5032458;28;20033;-84
2021/11/07 12:25:56;;;;;;;15.85;2.63;;;10.80;93.30;;;;;;5037628;28;20041;-83
2021/11/07 12:28:42;;;;;;;18.60;3.05;;;10.80;93.50;;;;;;5035247;28;20049;-84
2021/11/07 12:31:08;;;;;;;23.33;3.40;;;10.80;93.10;;;;;;5033372;28;20045;-83
2021/11/07 12:34:12;;;;;;;24.08;3.65;;;10.90;93.30;;;;;;5037344;28;20032;-83
2021/11/07 12:42:25;;;;;;;18.90;3.25;;;10.90;93.30;;;;;;5017147;28;20050;-84
2021/11/07 12:44:57;;;;;;;21.05;3.47;;;10.90;93.50;;;;;;5033723;28;20068;-84
2021/11/07 12:47:44;;;;;;;21.05;3.60;;;10.90;93.40;;;;;;5037762;28;20040;-84
2021/11/07 12:50:09;;;;;;;23.35;3.85;;;10.90;93.40;;;;;;5053437;28;20048;-83
2021/11/07 12:52:55;;;;;;;21.83;3.22;;;10.90;93.60;;;;;;5035042;28;20041;-83
2021/11/07 12:55:29;;;;;;;19.80;3.55;;;10.90;93.30;;;;;;5031399;28;20552;-84
2021/11/07 12:57:55;;;;;;;18.08;3.55;;;11.00;93.60;;;;;;5037371;28;20357;-84
2021/11/07 13:00:21;;;;;;;15.05;2.92;;;11.00;93.60;;;;;;5055595;28;20143;-84
2021/11/07 13:02:47;;;;;;;18.70;3.30;;;11.00;93.60;;;;;;5036419;28;20076;-83
2021/11/07 13:05:27;;;;;;;21.75;3.88;;;11.00;93.50;;;;;;5037603;28;20041;-83
2021/11/07 13:07:58;;;;;;;22.98;3.92;;;11.00;93.50;;;;;;5037661;28;20094;-83
2021/11/07 13:10:36;;;;;;;22.40;4.05;;;11.00;93.50;;;;;;5036751;28;20152;-84
2021/11/07 13:13:10;;;;;;;19.85;4.28;;;11.00;93.30;;;;;;5036963;28;20041;-84
2021/11/07 13:26:43;;;;;;;25.90;4.30;;;10.90;93.40;;;;;;5035915;28;20053;-84
2021/11/07 13:32:16;;;;;;;22.25;3.67;;;10.90;93.40;;;;;;5054335;28;20049;-84
2021/11/07 13:35:04;;;;;;;25.13;4.05;;;10.90;93.30;;;;;;5037084;28;20514;-85
2021/11/07 13:37:47;;;;;;;23.95;4.20;;;10.90;93.30;;;;;;5036001;28;20045;-86
2021/11/07 13:40:20;;;;;;;22.90;3.78;;;10.80;93.30;;;;;;5036490;28;20045;-86
2021/11/07 13:42:47;;;;;;;25.15;4.35;;;10.80;93.30;;;;;;5036970;28;20041;-85
2021/11/07 13:45:29;;;;;;;23.95;4.47;;;10.90;93.30;;;;;;5034951;28;20037;-84
2021/11/07 13:48:01;;;;;;;22.23;4.07;;;10.80;93.20;;;;;;5036030;28;20056;-88
2021/11/07 13:50:38;;;;;;;20.13;4.37;;;10.80;93.30;;;;;;5036749;28;20048;-87
2021/11/07 13:53:21;;;;;;;18.55;3.95;;;10.80;93.20;;;;;;5034327;28;20295;-87
2021/11/07 13:55:51;;;;;;;25.50;4.28;;;10.80;93.20;;;;;;5035980;28;20044;-84
2021/11/07 13:58:26;;;;;;;23.48;4.25;;;10.90;93.30;;;;;;5034259;28;20045;-85
2021/11/07 14:00:54;;;;;;;23.40;4.22;;;10.80;93.30;;;;;;5034948;28;20049;-85
2021/11/07 14:03:30;;;;;;;27.95;4.78;;;10.80;93.40;;;;;;5035459;28;20045;-85
2021/11/07 14:06:06;;;;;;;24.20;4.47;;;10.80;93.50;;;;;;5035553;28;20053;-85
2021/11/07 14:09:03;;;;;;;25.40;4.40;;;10.80;93.70;;;;;;5036058;28;20044;-85
2021/11/07 14:11:33;;;;;;;22.17;3.92;;;10.90;93.50;;;;;;5033005;28;20053;-84
2021/11/07 14:14:08;;;;;;;23.60;3.80;;;10.80;93.80;;;;;;5035215;28;20124;-83
2021/11/07 14:16:42;;;;;;;26.77;4.03;;;10.90;93.90;;;;;;5036077;28;20056;-82
2021/11/07 14:19:11;;;;;;;25.95;3.90;;;10.90;94.20;;;;;;5035450;28;20585;-83
2021/11/07 14:21:46;;;;;;;20.90;3.20;;;10.90;94.10;;;;;;5034914;28;20037;-83
2021/11/07 14:24:23;;;;;;;20.02;3.60;;;10.90;94.10;;;;;;5035690;28;20052;-83
2021/11/07 14:26:55;;;;;;;20.85;4.03;;;10.80;94.10;;;;;;5035420;28;20044;-83
2021/11/07 14:37:18;;;;;;;31.15;4.82;;;10.80;94.20;;;;;;5035513;28;20489;-83
2021/11/07 14:39:58;;;;;;;20.63;4.18;;;10.80;94.30;;;;;;5035915;28;20049;-83
2021/11/07 14:57:01;;;;;;;19.30;3.40;;;10.60;94.40;;;;;;5034868;28;20099;-83
2021/11/07 15:02:27;;;;;;;19.65;3.65;;;10.60;94.30;;;;;;5034639;28;20112;-83
2021/11/07 15:05:00;;;;;;;;;;;10.50;94.00;;;;;;5036208;28;20074;-83
2021/11/07 15:07:33;;;;;;;17.13;3.07;;;10.40;93.50;;;;;;5035389;28;19917;-83
2021/11/07 15:24:22;;;;;;;15.23;2.80;;;10.20;94.10;;;;;;5034676;28;20401;-83
2021/11/07 15:26:56;;;;;;;14.43;2.75;;;10.20;94.40;;;;;;5035389;28;20496;-84
2021/11/07 15:29:36;;;;;;;13.35;2.97;;;10.20;94.50;;;;;;5035570;28;20437;-83
2021/11/07 15:32:23;;;;;;;16.17;2.60;;;10.20;94.50;;;;;;5034777;28;20084;-83
2021/11/07 15:34:49;;;;;;;11.95;2.30;;;10.20;94.50;;;;;;5035298;28;20047;-84
2021/11/07 15:37:28;;;;;;;10.38;2.40;;;10.20;94.30;;;;;;5034795;28;20136;-84
2021/11/07 15:39:55;;;;;;;12.90;2.35;;;10.10;94.20;;;;;;5035054;28;20076;-84